Terminal Aerodrome Forecast
Issued by NWS

Home | Current Version | Previous Version | Text Only | Print | Product List | Glossary On
Versions: 1 2 3 4 5 6 7 8 9 10 11 12 13 14 15 16 17 18 19 20 21 22 23 24 25 26 27 28 29 30
000
FTUS45 KCYS 280800 AAA
TAFAIA
TAF AMD
KAIA 280811Z 2808/2906 27007KT 3SM BR BKN005
     FM281500 34010G20KT P6SM OVC045
     FM282000 33009KT P6SM BKN045
     FM290200 27006KT P6SM SCT045=

USA.gov is the U.S. government's official web portal to all federal, state and local government web resources and services.